Time;durP1;ratioP1;P1;durP2;ratioP2;P2;SDS_P1;SDS_P2;PMS_P1;PMS_P2;Temp;Humidity;BMP_temperature;BMP_pressure;BME280_temperature;BME280_humidity;BME280_pressure;Samples;Min_cycle;Max_cycle;Signal;HPM_P1;HPM_P2
2021/04/09 00:01:14;;;;;;;20.95;11.02;;;;;;;;;;5058503;28;32192;-73
2021/04/09 00:03:41;;;;;;;19.00;11.32;;;;;;;;;;5055929;28;32307;-74
2021/04/09 00:06:07;;;;;;;24.13;10.57;;;;;;;;;;5058935;28;31779;-74
2021/04/09 00:08:32;;;;;;;22.20;10.43;;;;;;;;;;5057075;28;32028;-72
2021/04/09 00:10:58;;;;;;;22.13;11.10;;;;;;;;;;5057968;28;33308;-73
2021/04/09 00:13:24;;;;;;;21.33;10.35;;;;;;;;;;5058313;28;31766;-73
2021/04/09 00:15:49;;;;;;;20.77;11.27;;;;;;;;;;5058849;28;32415;-73
2021/04/09 00:18:15;;;;;;;24.05;10.35;;;;;;;;;;5058177;28;30632;-73
2021/04/09 00:20:41;;;;;;;19.58;10.23;;;;;;;;;;5041275;28;32530;-73
2021/04/09 00:23:06;;;;;;;21.65;11.38;;;;;;;;;;5039503;28;32363;-73
2021/04/09 00:25:32;;;;;;;17.15;10.00;;;;;;;;;;5039241;28;32947;-74
2021/04/09 00:27:58;;;;;;;21.15;11.27;;;;;;;;;;5042034;28;32209;-73
2021/04/09 00:30:26;;;;;;;26.98;11.32;;;;;;;;;;5063578;28;32645;-73
2021/04/09 00:32:52;;;;;;;19.42;11.32;;;;;;;;;;5070826;28;32574;-74
2021/04/09 00:35:17;;;;;;;18.92;10.88;;;;;;;;;;5059680;28;32038;-74
2021/04/09 00:37:43;;;;;;;17.60;11.10;;;;;;;;;;5059264;28;32087;-73
2021/04/09 00:40:11;;;;;;;20.00;10.55;;;;;;;;;;5058185;28;33526;-73
2021/04/09 00:42:37;;;;;;;24.73;11.23;;;;;;;;;;5059169;28;33138;-73
2021/04/09 00:45:03;;;;;;;19.38;11.10;;;;;;;;;;5057824;28;31974;-73
2021/04/09 00:47:29;;;;;;;22.25;10.90;;;;;;;;;;5058328;28;31247;-73
2021/04/09 00:49:55;;;;;;;21.13;11.25;;;;;;;;;;5057238;28;32390;-73
2021/04/09 00:52:22;;;;;;;22.60;10.98;;;;;;;;;;5055946;28;30866;-73
2021/04/09 00:54:48;;;;;;;21.25;10.55;;;;;;;;;;5056794;28;31665;-72
2021/04/09 00:57:15;;;;;;;21.08;11.60;;;;;;;;;;5058195;28;32887;-73
2021/04/09 00:59:42;;;;;;;20.45;10.63;;;;;;;;;;5058325;28;32684;-73
2021/04/09 01:02:07;;;;;;;20.45;10.82;;;;;;;;;;5058551;28;32083;-73
2021/04/09 01:04:33;;;;;;;20.27;10.63;;;;;;;;;;5058935;28;32618;-73
2021/04/09 01:06:59;;;;;;;21.83;10.68;;;;;;;;;;5058835;28;31573;-73
2021/04/09 01:09:24;;;;;;;19.17;11.00;;;;;;;;;;5056394;28;32680;-73
2021/04/09 01:11:50;;;;;;;20.15;10.43;;;;;;;;;;5057624;28;33556;-72
2021/04/09 01:14:16;;;;;;;17.70;10.27;;;;;;;;;;5057203;28;31973;-73
2021/04/09 01:17:14;;;;;;;25.45;11.27;;;;;;;;;;5060447;28;31839;-73
2021/04/09 01:19:49;;;;;;;20.80;10.52;;;;;;;;;;5051082;28;33713;-73
2021/04/09 01:22:15;;;;;;;21.38;10.20;;;;;;;;;;5042411;28;32219;-73
2021/04/09 01:24:41;;;;;;;20.30;10.40;;;;;;;;;;5041620;28;32963;-73
2021/04/09 01:27:25;;;;;;;25.30;10.98;;;;;;;;;;5040775;28;32996;-74
2021/04/09 01:30:03;;;;;;;19.10;10.13;;;;;;;;;;5050623;28;32742;-73
2021/04/09 01:32:30;;;;;;;19.50;9.95;;;;;;;;;;5060468;28;32130;-72
2021/04/09 01:34:57;;;;;;;19.38;10.38;;;;;;;;;;5061291;28;32069;-73
2021/04/09 01:37:28;;;;;;;24.73;11.05;;;;;;;;;;5059301;28;30962;-73
2021/04/09 01:40:00;;;;;;;21.33;11.55;;;;;;;;;;5059390;28;32674;-73
2021/04/09 01:42:26;;;;;;;20.63;10.18;;;;;;;;;;5060988;28;32418;-72
2021/04/09 01:44:53;;;;;;;22.55;10.52;;;;;;;;;;5061374;28;32004;-72
2021/04/09 01:47:25;;;;;;;21.25;11.70;;;;;;;;;;5061243;28;32126;-73
2021/04/09 01:49:59;;;;;;;19.33;9.85;;;;;;;;;;5060850;28;32651;-72
2021/04/09 01:52:25;;;;;;;17.52;10.45;;;;;;;;;;5061549;28;32388;-72
2021/04/09 01:54:52;;;;;;;19.88;9.20;;;;;;;;;;5059444;28;31977;-73
2021/04/09 01:57:19;;;;;;;22.20;11.18;;;;;;;;;;5059629;28;30829;-73
2021/04/09 01:59:45;;;;;;;21.90;10.52;;;;;;;;;;5059733;28;32572;-73
2021/04/09 02:02:11;;;;;;;22.92;9.85;;;;;;;;;;5060632;28;32283;-72
2021/04/09 02:04:37;;;;;;;20.75;10.52;;;;;;;;;;5060502;28;31936;-74
2021/04/09 02:07:03;;;;;;;18.58;9.50;;;;;;;;;;5059767;28;30546;-73
2021/04/09 02:09:30;;;;;;;19.75;9.35;;;;;;;;;;5059354;28;32643;-73
2021/04/09 02:11:56;;;;;;;19.73;10.13;;;;;;;;;;5060051;28;32303;-73
2021/04/09 02:14:22;;;;;;;23.50;10.02;;;;;;;;;;5060634;28;31541;-73
2021/04/09 02:16:48;;;;;;;16.65;9.35;;;;;;;;;;5062944;28;33043;-73
2021/04/09 02:19:14;;;;;;;19.90;9.98;;;;;;;;;;5065889;28;32706;-73
2021/04/09 02:21:40;;;;;;;19.73;10.38;;;;;;;;;;5070285;28;32034;-73
2021/04/09 02:24:06;;;;;;;16.98;9.43;;;;;;;;;;5068656;28;32052;-72
2021/04/09 02:26:32;;;;;;;22.98;10.95;;;;;;;;;;5080145;28;32600;-73
2021/04/09 02:28:58;;;;;;;17.58;9.10;;;;;;;;;;5070829;28;32155;-73
2021/04/09 02:31:24;;;;;;;17.88;9.25;;;;;;;;;;5068914;28;32140;-73
2021/04/09 02:33:50;;;;;;;21.50;9.73;;;;;;;;;;5065810;28;31756;-72
2021/04/09 02:36:23;;;;;;;20.58;9.25;;;;;;;;;;5069516;28;31698;-72
2021/04/09 02:38:53;;;;;;;17.20;9.65;;;;;;;;;;5057669;28;32388;-73
2021/04/09 02:41:20;;;;;;;26.20;10.52;;;;;;;;;;5059179;28;32887;-73
2021/04/09 02:43:46;;;;;;;16.88;9.32;;;;;;;;;;5058450;28;32942;-73
2021/04/09 02:46:15;;;;;;;16.02;9.02;;;;;;;;;;5060050;28;32545;-74
2021/04/09 02:48:52;;;;;;;25.60;9.75;;;;;;;;;;5046089;28;32638;-73
2021/04/09 02:51:19;;;;;;;17.48;8.70;;;;;;;;;;5038464;28;31934;-74
2021/04/09 02:53:45;;;;;;;14.57;8.80;;;;;;;;;;5038669;28;31633;-73
2021/04/09 02:56:12;;;;;;;18.60;9.73;;;;;;;;;;5039779;28;31416;-74
2021/04/09 02:58:38;;;;;;;19.05;9.88;;;;;;;;;;5038218;28;32301;-71
2021/04/09 03:01:04;;;;;;;13.70;8.43;;;;;;;;;;5058433;28;32186;-72
2021/04/09 03:03:30;;;;;;;18.73;9.63;;;;;;;;;;5057102;28;31859;-73
2021/04/09 03:05:56;;;;;;;16.70;8.93;;;;;;;;;;5057912;28;31739;-73
2021/04/09 03:08:22;;;;;;;19.17;8.80;;;;;;;;;;5048659;28;33651;-76
2021/04/09 03:10:48;;;;;;;18.40;9.15;;;;;;;;;;5058338;28;33239;-72
2021/04/09 03:13:14;;;;;;;20.13;9.18;;;;;;;;;;5058441;28;31868;-73
2021/04/09 03:15:42;;;;;;;13.23;8.13;;;;;;;;;;5057096;28;32020;-74
2021/04/09 03:18:08;;;;;;;22.60;9.60;;;;;;;;;;5045106;28;32346;-73
2021/04/09 03:20:34;;;;;;;18.17;8.65;;;;;;;;;;5052662;28;32176;-73
2021/04/09 03:23:00;;;;;;;16.13;8.07;;;;;;;;;;5056468;28;32510;-75
2021/04/09 03:25:26;;;;;;;18.75;8.00;;;;;;;;;;5054250;28;31653;-72
2021/04/09 03:27:51;;;;;;;14.90;8.20;;;;;;;;;;5057713;28;32670;-73
2021/04/09 03:30:18;;;;;;;13.20;7.47;;;;;;;;;;5058311;28;32181;-73
2021/04/09 03:32:44;;;;;;;14.13;8.48;;;;;;;;;;5057740;28;32047;-74
2021/04/09 03:35:09;;;;;;;19.48;8.30;;;;;;;;;;5057007;28;32768;-72
2021/04/09 03:37:35;;;;;;;15.60;8.07;;;;;;;;;;5057964;28;32272;-72
2021/04/09 03:40:01;;;;;;;18.10;8.52;;;;;;;;;;5056128;28;31878;-72
2021/04/09 03:42:26;;;;;;;17.70;8.20;;;;;;;;;;5059143;28;32063;-72
2021/04/09 03:44:52;;;;;;;22.27;7.88;;;;;;;;;;5058171;28;32755;-72
2021/04/09 03:47:18;;;;;;;13.63;7.80;;;;;;;;;;5059083;28;42091;-72
2021/04/09 03:49:43;;;;;;;19.90;7.95;;;;;;;;;;5058287;28;31993;-72
2021/04/09 03:52:09;;;;;;;17.60;8.32;;;;;;;;;;5058792;28;32129;-72
2021/04/09 03:54:35;;;;;;;22.38;8.15;;;;;;;;;;5054437;28;31937;-73
2021/04/09 03:57:01;;;;;;;19.67;8.52;;;;;;;;;;5058262;28;33666;-73
2021/04/09 03:59:26;;;;;;;22.38;8.65;;;;;;;;;;5055546;28;31788;-73
2021/04/09 04:01:52;;;;;;;14.73;8.00;;;;;;;;;;5057085;28;32535;-73
2021/04/09 04:04:18;;;;;;;20.42;8.07;;;;;;;;;;5059046;28;32096;-73
2021/04/09 04:06:44;;;;;;;25.25;10.10;;;;;;;;;;5059228;28;33553;-72
2021/04/09 04:09:09;;;;;;;28.75;11.65;;;;;;;;;;5058116;28;32310;-74
2021/04/09 04:11:35;;;;;;;18.67;10.65;;;;;;;;;;5058676;28;32978;-73
2021/04/09 04:14:01;;;;;;;18.52;9.38;;;;;;;;;;5056576;28;35291;-74
2021/04/09 04:16:26;;;;;;;18.98;8.80;;;;;;;;;;5059048;28;33385;-73
2021/04/09 04:18:52;;;;;;;22.90;10.00;;;;;;;;;;5052952;28;32250;-74
2021/04/09 04:21:18;;;;;;;16.77;8.77;;;;;;;;;;5053978;28;32601;-72
2021/04/09 04:23:44;;;;;;;19.40;9.13;;;;;;;;;;5057748;28;32615;-74
2021/04/09 04:26:10;;;;;;;17.40;9.02;;;;;;;;;;5056195;28;32524;-73
2021/04/09 04:28:36;;;;;;;24.00;9.77;;;;;;;;;;5057654;28;32272;-75
2021/04/09 04:31:02;;;;;;;19.85;9.73;;;;;;;;;;5057428;28;32206;-74
2021/04/09 04:33:27;;;;;;;23.80;9.65;;;;;;;;;;5055523;28;32090;-72
2021/04/09 04:35:53;;;;;;;16.00;9.13;;;;;;;;;;5056427;28;32396;-74
2021/04/09 04:38:20;;;;;;;25.63;10.15;;;;;;;;;;5061298;28;31951;-72
2021/04/09 04:40:46;;;;;;;20.73;8.90;;;;;;;;;;5064643;28;31512;-74
2021/04/09 04:43:12;;;;;;;21.73;9.43;;;;;;;;;;5066891;28;31768;-73
2021/04/09 04:45:38;;;;;;;17.88;9.65;;;;;;;;;;5067472;28;32864;-73
2021/04/09 04:48:04;;;;;;;29.08;12.10;;;;;;;;;;5071920;28;32643;-73
2021/04/09 04:50:30;;;;;;;21.02;8.40;;;;;;;;;;5064463;28;32064;-73
2021/04/09 04:52:56;;;;;;;20.10;10.45;;;;;;;;;;5057908;28;30757;-73
2021/04/09 04:55:22;;;;;;;26.65;9.40;;;;;;;;;;5057595;28;32868;-74
2021/04/09 04:57:47;;;;;;;15.20;9.02;;;;;;;;;;5057987;28;33194;-74
2021/04/09 05:00:13;;;;;;;18.83;11.07;;;;;;;;;;5056071;28;31778;-73
2021/04/09 05:02:39;;;;;;;25.73;10.85;;;;;;;;;;5055843;28;32634;-73
2021/04/09 05:05:05;;;;;;;18.48;10.13;;;;;;;;;;5056837;28;32293;-74
2021/04/09 05:07:31;;;;;;;17.08;9.30;;;;;;;;;;5056268;28;33432;-74
2021/04/09 05:09:58;;;;;;;18.05;9.43;;;;;;;;;;5057460;28;31621;-74
2021/04/09 05:12:23;;;;;;;23.10;10.18;;;;;;;;;;5056923;28;33036;-73
2021/04/09 05:14:53;;;;;;;17.98;10.13;;;;;;;;;;5057845;28;33377;-74
2021/04/09 05:17:19;;;;;;;19.58;9.60;;;;;;;;;;5057440;28;33422;-74
2021/04/09 05:19:44;;;;;;;26.25;10.02;;;;;;;;;;5057963;28;31718;-74
2021/04/09 05:22:10;;;;;;;18.98;9.98;;;;;;;;;;5058924;28;32379;-74
2021/04/09 05:24:36;;;;;;;39.97;11.60;;;;;;;;;;5065159;28;32501;-74
2021/04/09 05:27:02;;;;;;;21.98;10.13;;;;;;;;;;5067806;28;32407;-74
2021/04/09 05:29:29;;;;;;;22.13;10.60;;;;;;;;;;5066385;28;32455;-74
2021/04/09 05:31:54;;;;;;;26.15;9.43;;;;;;;;;;5057678;28;31486;-74
2021/04/09 05:34:20;;;;;;;27.50;10.57;;;;;;;;;;5056190;28;32561;-72
2021/04/09 05:36:46;;;;;;;19.65;10.30;;;;;;;;;;5057233;28;32530;-74
2021/04/09 05:39:11;;;;;;;21.92;9.70;;;;;;;;;;5056746;28;31965;-74
2021/04/09 05:41:37;;;;;;;22.27;10.23;;;;;;;;;;5061668;28;32526;-74
2021/04/09 05:44:03;;;;;;;21.50;9.90;;;;;;;;;;5064768;28;32508;-74
2021/04/09 05:46:29;;;;;;;17.70;8.75;;;;;;;;;;5067238;28;31943;-73
2021/04/09 05:48:54;;;;;;;22.67;10.25;;;;;;;;;;5060590;28;32697;-75
2021/04/09 05:51:20;;;;;;;26.50;10.73;;;;;;;;;;5056297;28;31852;-74
2021/04/09 05:53:46;;;;;;;20.75;9.35;;;;;;;;;;5056565;28;32474;-75
2021/04/09 05:56:12;;;;;;;23.65;9.95;;;;;;;;;;5057820;28;33052;-74
2021/04/09 05:58:37;;;;;;;21.10;9.25;;;;;;;;;;5056981;28;31356;-76
2021/04/09 06:01:03;;;;;;;19.33;9.90;;;;;;;;;;5055943;28;32030;-75
2021/04/09 06:03:29;;;;;;;22.75;9.45;;;;;;;;;;5060745;28;32584;-75
2021/04/09 06:05:55;;;;;;;25.85;10.38;;;;;;;;;;5060794;28;33087;-75
2021/04/09 06:08:21;;;;;;;26.83;10.35;;;;;;;;;;5060343;28;31956;-75
2021/04/09 06:10:47;;;;;;;25.80;9.57;;;;;;;;;;5067195;28;32093;-75
2021/04/09 06:13:14;;;;;;;19.20;9.38;;;;;;;;;;5068862;28;32189;-72
2021/04/09 06:15:40;;;;;;;20.20;9.35;;;;;;;;;;5073390;28;32422;-73
2021/04/09 06:18:06;;;;;;;20.02;9.25;;;;;;;;;;5080055;28;31824;-74
2021/04/09 06:20:31;;;;;;;18.83;9.40;;;;;;;;;;5066507;28;32084;-74
2021/04/09 06:22:57;;;;;;;18.70;9.52;;;;;;;;;;5062554;28;32443;-76
2021/04/09 06:25:24;;;;;;;26.55;10.18;;;;;;;;;;5059876;28;32180;-75
2021/04/09 06:27:50;;;;;;;25.10;10.38;;;;;;;;;;5059452;28;31634;-75
2021/04/09 06:30:16;;;;;;;22.75;10.02;;;;;;;;;;5060850;28;31863;-75
2021/04/09 06:32:41;;;;;;;21.25;10.10;;;;;;;;;;5060290;28;32553;-75
2021/04/09 06:35:07;;;;;;;21.73;9.50;;;;;;;;;;5057851;28;32828;-74
2021/04/09 06:37:33;;;;;;;19.45;9.52;;;;;;;;;;5058773;28;31515;-75
2021/04/09 06:39:59;;;;;;;21.70;9.10;;;;;;;;;;5060682;28;32123;-74
2021/04/09 06:42:24;;;;;;;29.08;10.05;;;;;;;;;;5061165;28;32555;-75
2021/04/09 06:44:51;;;;;;;22.45;10.63;;;;;;;;;;5060877;28;32253;-75
2021/04/09 06:47:17;;;;;;;21.10;10.32;;;;;;;;;;5059675;28;32601;-75
2021/04/09 06:49:44;;;;;;;23.38;10.80;;;;;;;;;;5059674;28;32042;-76
2021/04/09 06:52:11;;;;;;;18.65;9.52;;;;;;;;;;5059913;28;33556;-73
2021/04/09 06:54:38;;;;;;;23.83;9.50;;;;;;;;;;5058255;28;32048;-74
2021/04/09 06:57:05;;;;;;;20.70;9.00;;;;;;;;;;5059698;28;31993;-74
2021/04/09 06:59:31;;;;;;;21.83;7.93;;;;;;;;;;5059417;28;32572;-75
2021/04/09 07:01:58;;;;;;;30.08;11.65;;;;;;;;;;5059449;28;32461;-73
2021/04/09 07:04:23;;;;;;;18.58;9.10;;;;;;;;;;5059618;28;31995;-73
2021/04/09 07:06:49;;;;;;;16.33;8.23;;;;;;;;;;5060176;28;31853;-73
2021/04/09 07:09:15;;;;;;;18.63;9.00;;;;;;;;;;5059152;28;31986;-75
2021/04/09 07:11:47;;;;;;;14.82;8.63;;;;;;;;;;5059600;28;32315;-76
2021/04/09 07:14:13;;;;;;;19.00;8.95;;;;;;;;;;5056047;28;33689;-74
2021/04/09 07:16:54;;;;;;;19.90;8.63;;;;;;;;;;5058583;28;32593;-67
2021/04/09 07:19:30;;;;;;;17.83;9.15;;;;;;;;;;5061193;28;32982;-72
2021/04/09 07:22:05;;;;;;;16.08;9.13;;;;;;;;;;5065505;28;32698;-74
2021/04/09 07:24:31;;;;;;;19.30;9.57;;;;;;;;;;5064591;28;32565;-74
2021/04/09 07:26:58;;;;;;;20.02;8.80;;;;;;;;;;5070686;28;32863;-74
2021/04/09 07:29:30;;;;;;;21.52;9.40;;;;;;;;;;5060729;28;31707;-75
2021/04/09 07:31:56;;;;;;;25.23;9.40;;;;;;;;;;5065180;28;32793;-74
2021/04/09 07:34:22;;;;;;;17.83;9.18;;;;;;;;;;5053638;28;31865;-75
2021/04/09 07:36:54;;;;;;;19.90;9.73;;;;;;;;;;5062468;28;31438;-73
2021/04/09 07:39:33;;;;;;;22.30;9.25;;;;;;;;;;5064188;28;20904;-73
2021/04/09 07:42:08;;;;;;;19.13;9.23;;;;;;;;;;5064438;28;32428;-75
2021/04/09 07:44:34;;;;;;;18.50;8.68;;;;;;;;;;5060281;28;32354;-73
2021/04/09 07:47:09;;;;;;;12.85;6.97;;;;;;;;;;5067812;28;32663;-73
2021/04/09 07:49:35;;;;;;;18.95;7.93;;;;;;;;;;5060443;28;32959;-73
2021/04/09 07:52:11;;;;;;;16.63;7.80;;;;;;;;;;5057528;28;33337;-73
2021/04/09 07:54:37;;;;;;;16.73;7.60;;;;;;;;;;5056336;28;32124;-73
2021/04/09 07:57:03;;;;;;;16.45;7.30;;;;;;;;;;5057375;28;31720;-73
2021/04/09 07:59:38;;;;;;;18.88;7.80;;;;;;;;;;5057461;28;32318;-73
2021/04/09 08:02:04;;;;;;;18.92;8.30;;;;;;;;;;5058377;28;39001;-74
2021/04/09 08:04:37;;;;;;;16.60;4.22;;;;;;;;;;5047697;28;32217;-73
2021/04/09 08:07:03;;;;;;;17.73;7.80;;;;;;;;;;5037167;28;32865;-73
2021/04/09 08:09:45;;;;;;;16.83;7.07;;;;;;;;;;5048296;28;31524;-73
2021/04/09 08:12:24;;;;;;;14.52;7.75;;;;;;;;;;5055997;28;32746;-72
2021/04/09 08:14:49;;;;;;;16.40;7.97;;;;;;;;;;5038134;28;33041;-73
2021/04/09 08:17:15;;;;;;;15.48;6.53;;;;;;;;;;5036123;28;31920;-73
2021/04/09 08:19:41;;;;;;;13.02;6.07;;;;;;;;;;5044831;28;32669;-74
2021/04/09 08:22:07;;;;;;;12.43;6.07;;;;;;;;;;5053602;28;32688;-75
2021/04/09 08:24:35;;;;;;;16.60;6.47;;;;;;;;;;5037856;28;32066;-75
2021/04/09 08:27:01;;;;;;;14.07;6.10;;;;;;;;;;5035772;28;31126;-75
2021/04/09 08:29:27;;;;;;;17.95;6.50;;;;;;;;;;5045121;28;31792;-74
2021/04/09 08:31:53;;;;;;;9.43;5.10;;;;;;;;;;5058311;28;32430;-74
2021/04/09 08:34:20;;;;;;;11.95;5.10;;;;;;;;;;5042750;28;33004;-73
2021/04/09 08:36:46;;;;;;;16.40;5.57;;;;;;;;;;5040279;28;31955;-74
2021/04/09 08:39:13;;;;;;;10.10;5.25;;;;;;;;;;5056431;28;32008;-74
2021/04/09 08:41:40;;;;;;;10.10;5.28;;;;;;;;;;5057373;28;33167;-74
2021/04/09 08:44:09;;;;;;;10.48;4.88;;;;;;;;;;5045501;28;33020;-73
2021/04/09 08:46:35;;;;;;;13.77;5.13;;;;;;;;;;5043108;28;31516;-74
2021/04/09 08:49:01;;;;;;;9.63;4.20;;;;;;;;;;5064998;28;30712;-74
2021/04/09 08:51:28;;;;;;;9.88;4.53;;;;;;;;;;5062522;28;32551;-73
2021/04/09 08:53:54;;;;;;;8.32;4.38;;;;;;;;;;5047141;28;31316;-73
2021/04/09 08:56:36;;;;;;;8.80;4.95;;;;;;;;;;5052809;28;31829;-72
2021/04/09 08:59:02;;;;;;;11.60;4.32;;;;;;;;;;5047690;28;32556;-72
2021/04/09 09:01:28;;;;;;;12.05;5.07;;;;;;;;;;5048579;28;31467;-72
2021/04/09 09:03:54;;;;;;;11.10;4.65;;;;;;;;;;5053185;28;32814;-73
2021/04/09 09:06:39;;;;;;;12.23;4.82;;;;;;;;;;5054853;28;31251;-73
2021/04/09 09:09:05;;;;;;;8.65;4.65;;;;;;;;;;5056928;28;31988;-73
2021/04/09 09:11:49;;;;;;;12.38;4.70;;;;;;;;;;5057311;28;32010;-72
2021/04/09 09:14:33;;;;;;;8.30;4.43;;;;;;;;;;5056348;28;31229;-74
2021/04/09 09:17:19;;;;;;;14.60;4.85;;;;;;;;;;5051720;28;32294;-74
2021/04/09 09:19:45;;;;;;;19.27;6.95;;;;;;;;;;5045538;28;30341;-73
2021/04/09 09:22:12;;;;;;;9.43;5.35;;;;;;;;;;5055849;28;32341;-73
2021/04/09 09:24:56;;;;;;;10.70;4.45;;;;;;;;;;5053882;28;32309;-73
2021/04/09 09:27:42;;;;;;;13.23;4.63;;;;;;;;;;5050455;28;31685;-73
2021/04/09 09:30:26;;;;;;;9.27;4.93;;;;;;;;;;5051006;28;32124;-73
2021/04/09 09:33:10;;;;;;;7.25;4.90;;;;;;;;;;5047796;28;34010;-73
2021/04/09 09:35:54;;;;;;;15.18;5.13;;;;;;;;;;5050047;28;32273;-73
2021/04/09 09:38:58;;;;;;;15.43;5.35;;;;;;;;;;5051311;28;31907;-73
2021/04/09 09:41:33;;;;;;;9.70;4.93;;;;;;;;;;5090063;28;31600;-73
2021/04/09 09:43:59;;;;;;;7.50;3.72;;;;;;;;;;5091419;28;32474;-74
2021/04/09 09:46:43;;;;;;;7.75;4.82;;;;;;;;;;5069813;28;31840;-74
2021/04/09 09:49:09;;;;;;;9.50;4.95;;;;;;;;;;5051861;28;30971;-73
2021/04/09 09:51:36;;;;;;;20.75;5.60;;;;;;;;;;5053673;28;32679;-73
2021/04/09 09:54:02;;;;;;;12.95;4.95;;;;;;;;;;5056129;28;35571;-73
2021/04/09 09:56:28;;;;;;;12.80;5.25;;;;;;;;;;5057342;28;32293;-73
2021/04/09 09:58:53;;;;;;;15.95;4.85;;;;;;;;;;5056958;28;32092;-74
2021/04/09 10:01:23;;;;;;;15.70;5.70;;;;;;;;;;5054859;28;30978;-73
2021/04/09 10:03:48;;;;;;;10.68;4.78;;;;;;;;;;5056624;28;33554;-74
2021/04/09 10:06:14;;;;;;;7.85;4.47;;;;;;;;;;5056634;28;32240;-74
2021/04/09 10:08:41;;;;;;;8.32;5.00;;;;;;;;;;5055011;28;31556;-75
2021/04/09 10:11:14;;;;;;;8.10;4.28;;;;;;;;;;5055212;28;31915;-73
2021/04/09 10:13:40;;;;;;;11.80;4.53;;;;;;;;;;5054969;28;32602;-73
2021/04/09 10:16:07;;;;;;;11.05;4.28;;;;;;;;;;5053785;28;32176;-73
2021/04/09 10:18:33;;;;;;;9.75;5.00;;;;;;;;;;5056164;28;31498;-73
2021/04/09 10:21:09;;;;;;;13.15;3.90;;;;;;;;;;5054977;28;31623;-73
2021/04/09 10:23:34;;;;;;;11.20;3.92;;;;;;;;;;5053365;28;32599;-73
2021/04/09 10:26:00;;;;;;;13.25;3.72;;;;;;;;;;5054711;28;32278;-73
2021/04/09 10:28:26;;;;;;;7.32;3.15;;;;;;;;;;5055265;28;30956;-73
2021/04/09 10:30:54;;;;;;;9.63;4.35;;;;;;;;;;5054473;28;32679;-72
2021/04/09 10:33:34;;;;;;;16.85;4.30;;;;;;;;;;5054793;28;32571;-73
2021/04/09 10:36:13;;;;;;;5.90;3.30;;;;;;;;;;5054886;28;32247;-73
2021/04/09 10:38:38;;;;;;;5.70;3.20;;;;;;;;;;5053146;28;31918;-73
2021/04/09 10:41:04;;;;;;;9.70;3.97;;;;;;;;;;5055232;28;32537;-72
2021/04/09 10:43:31;;;;;;;7.60;3.50;;;;;;;;;;5055010;28;32208;-72
2021/04/09 10:46:07;;;;;;;10.30;3.90;;;;;;;;;;5054716;28;32284;-73
2021/04/09 10:48:33;;;;;;;5.35;1.35;;;;;;;;;;5055047;28;31940;-73
2021/04/09 10:50:59;;;;;;;8.13;3.58;;;;;;;;;;5056390;28;32060;-73
2021/04/09 10:53:25;;;;;;;12.90;3.80;;;;;;;;;;5056994;28;32587;-74
2021/04/09 10:55:50;;;;;;;6.20;2.72;;;;;;;;;;5055860;28;32303;-74
2021/04/09 10:58:16;;;;;;;4.03;1.38;;;;;;;;;;5052825;28;32013;-74
2021/04/09 11:00:42;;;;;;;6.93;3.50;;;;;;;;;;5052193;28;30674;-74
2021/04/09 11:03:08;;;;;;;24.08;4.80;;;;;;;;;;5050965;28;31024;-74
2021/04/09 11:05:34;;;;;;;6.03;2.38;;;;;;;;;;5052537;28;33140;-74
2021/04/09 11:08:00;;;;;;;2.67;1.40;;;;;;;;;;5051556;28;31528;-75
2021/04/09 11:10:32;;;;;;;25.52;4.63;;;;;;;;;;5053139;28;33037;-74
2021/04/09 11:12:59;;;;;;;8.02;3.08;;;;;;;;;;5052840;28;32996;-72
2021/04/09 11:15:25;;;;;;;7.68;3.53;;;;;;;;;;5051953;28;32260;-73
2021/04/09 11:17:52;;;;;;;9.85;2.75;;;;;;;;;;5053497;28;33445;-74
2021/04/09 11:20:28;;;;;;;6.88;2.20;;;;;;;;;;5051404;28;31318;-74
2021/04/09 11:23:02;;;;;;;4.88;2.55;;;;;;;;;;5050673;28;39340;-74
2021/04/09 11:25:32;;;;;;;4.95;3.08;;;;;;;;;;5053900;28;32244;-73
2021/04/09 11:27:57;;;;;;;6.85;3.35;;;;;;;;;;5049443;28;32431;-74
2021/04/09 11:30:23;;;;;;;7.13;3.03;;;;;;;;;;5046667;28;32661;-74
2021/04/09 11:32:50;;;;;;;5.15;2.35;;;;;;;;;;5053624;28;32789;-74
2021/04/09 11:35:27;;;;;;;6.65;3.22;;;;;;;;;;5051662;28;32062;-75
2021/04/09 11:38:12;;;;;;;9.68;3.58;;;;;;;;;;5053516;28;31095;-72
2021/04/09 11:40:40;;;;;;;7.32;3.58;;;;;;;;;;5053547;28;31841;-73
2021/04/09 11:43:06;;;;;;;7.20;3.40;;;;;;;;;;5055498;28;32386;-73
2021/04/09 11:45:37;;;;;;;12.90;3.72;;;;;;;;;;5052883;28;33019;-73
2021/04/09 11:48:12;;;;;;;15.45;4.63;;;;;;;;;;5051982;28;30626;-73
2021/04/09 11:50:38;;;;;;;8.75;3.40;;;;;;;;;;5051256;28;32695;-72
2021/04/09 11:53:04;;;;;;;7.95;3.78;;;;;;;;;;5054451;28;33224;-74
2021/04/09 11:55:38;;;;;;;7.30;3.53;;;;;;;;;;5055902;28;32028;-74
2021/04/09 11:58:04;;;;;;;8.30;4.95;;;;;;;;;;5055139;28;31649;-74
2021/04/09 12:00:31;;;;;;;7.68;4.05;;;;;;;;;;5050252;28;33390;-73
2021/04/09 12:02:59;;;;;;;4.03;2.13;;;;;;;;;;5053027;28;32681;-73
2021/04/09 12:05:27;;;;;;;3.70;1.35;;;;;;;;;;5051514;28;32550;-73
2021/04/09 12:07:53;;;;;;;8.70;1.60;;;;;;;;;;5054021;28;32900;-74
2021/04/09 12:10:19;;;;;;;8.77;1.73;;;;;;;;;;5052960;28;31788;-74
2021/04/09 12:12:45;;;;;;;9.57;4.13;;;;;;;;;;5052694;28;32683;-73
2021/04/09 12:15:11;;;;;;;11.18;4.70;;;;;;;;;;5052658;28;32006;-73
2021/04/09 12:17:37;;;;;;;5.72;2.67;;;;;;;;;;5050806;28;31986;-73
2021/04/09 12:20:14;;;;;;;7.18;3.85;;;;;;;;;;5051087;28;32025;-73
2021/04/09 12:22:40;;;;;;;18.13;5.63;;;;;;;;;;5051304;28;32371;-73
2021/04/09 12:25:06;;;;;;;10.10;5.00;;;;;;;;;;5048066;28;31352;-73
2021/04/09 12:27:32;;;;;;;7.63;3.40;;;;;;;;;;5048532;28;32028;-73
2021/04/09 12:29:59;;;;;;;13.40;6.50;;;;;;;;;;5050974;28;31598;-73
2021/04/09 12:32:25;;;;;;;12.40;5.35;;;;;;;;;;5050528;28;32879;-73
2021/04/09 12:34:50;;;;;;;12.07;5.35;;;;;;;;;;5051300;28;32338;-73
2021/04/09 12:37:16;;;;;;;8.20;5.32;;;;;;;;;;5051137;28;31696;-73
2021/04/09 12:39:42;;;;;;;7.43;3.53;;;;;;;;;;5051067;28;31616;-74
2021/04/09 12:42:09;;;;;;;15.52;6.80;;;;;;;;;;5052229;28;33381;-73
2021/04/09 12:44:35;;;;;;;10.48;5.97;;;;;;;;;;5050870;28;33183;-73
2021/04/09 12:47:01;;;;;;;10.80;4.97;;;;;;;;;;5051100;28;32423;-73
2021/04/09 12:49:27;;;;;;;11.02;5.28;;;;;;;;;;5051059;28;31525;-73
2021/04/09 12:51:52;;;;;;;8.05;2.75;;;;;;;;;;5050127;28;33549;-74
2021/04/09 12:54:19;;;;;;;11.32;5.05;;;;;;;;;;5051317;28;31885;-74
2021/04/09 12:56:44;;;;;;;15.50;5.68;;;;;;;;;;5050284;28;32490;-73
2021/04/09 12:59:10;;;;;;;6.40;2.38;;;;;;;;;;5050426;28;31602;-74
2021/04/09 13:01:36;;;;;;;5.45;2.35;;;;;;;;;;5050920;28;32290;-73
2021/04/09 13:04:01;;;;;;;6.35;2.53;;;;;;;;;;5048871;28;32065;-74
2021/04/09 13:06:28;;;;;;;6.45;2.20;;;;;;;;;;5048830;28;32576;-74
2021/04/09 13:08:54;;;;;;;12.23;5.28;;;;;;;;;;5048888;28;31171;-73
2021/04/09 13:11:20;;;;;;;10.98;5.68;;;;;;;;;;5049764;28;32231;-73
2021/04/09 13:13:46;;;;;;;11.88;4.20;;;;;;;;;;5051293;28;33095;-74
2021/04/09 13:16:13;;;;;;;14.57;6.38;;;;;;;;;;5052876;28;31870;-73
2021/04/09 13:18:39;;;;;;;13.10;4.60;;;;;;;;;;5049931;28;31943;-74
2021/04/09 13:21:05;;;;;;;12.25;5.38;;;;;;;;;;5050487;28;32214;-73
2021/04/09 13:23:31;;;;;;;12.75;5.65;;;;;;;;;;5049949;28;32759;-74
2021/04/09 13:25:57;;;;;;;18.00;6.05;;;;;;;;;;5032775;28;30426;-75
2021/04/09 13:28:23;;;;;;;11.30;4.90;;;;;;;;;;5063760;28;32082;-74
2021/04/09 13:30:55;;;;;;;10.63;5.07;;;;;;;;;;5070844;28;32869;-74
2021/04/09 13:33:25;;;;;;;21.20;6.30;;;;;;;;;;5060976;28;32208;-72
2021/04/09 13:35:51;;;;;;;6.65;4.35;;;;;;;;;;5053765;28;32927;-73
2021/04/09 13:38:17;;;;;;;10.20;5.78;;;;;;;;;;5052855;28;32144;-73
2021/04/09 13:40:43;;;;;;;12.38;5.13;;;;;;;;;;5051505;28;32710;-73
2021/04/09 13:43:08;;;;;;;7.88;5.07;;;;;;;;;;5050358;28;30820;-73
2021/04/09 13:45:34;;;;;;;11.40;5.45;;;;;;;;;;5051415;28;31534;-73
2021/04/09 13:48:00;;;;;;;10.30;5.28;;;;;;;;;;5033100;28;30497;-73
2021/04/09 13:50:25;;;;;;;10.73;5.95;;;;;;;;;;5047854;28;33355;-73
2021/04/09 13:52:52;;;;;;;13.23;4.63;;;;;;;;;;5050986;28;32195;-73
2021/04/09 13:55:17;;;;;;;10.02;5.43;;;;;;;;;;5049675;28;32936;-73
2021/04/09 13:57:43;;;;;;;10.10;6.07;;;;;;;;;;5051002;28;31225;-72
2021/04/09 14:00:09;;;;;;;9.85;6.63;;;;;;;;;;5048152;28;32441;-73
2021/04/09 14:02:35;;;;;;;12.23;5.20;;;;;;;;;;5051213;28;32917;-73
2021/04/09 14:05:00;;;;;;;15.38;6.30;;;;;;;;;;5050172;28;32957;-73
2021/04/09 14:07:26;;;;;;;9.45;5.00;;;;;;;;;;5049711;28;31814;-74
2021/04/09 14:09:52;;;;;;;10.68;5.13;;;;;;;;;;5050978;28;32292;-73
2021/04/09 14:12:18;;;;;;;12.10;5.75;;;;;;;;;;5050463;28;36879;-73
2021/04/09 14:14:44;;;;;;;9.70;5.60;;;;;;;;;;5048772;28;31849;-74
2021/04/09 14:17:11;;;;;;;16.50;5.32;;;;;;;;;;5050066;28;31754;-73
2021/04/09 14:19:38;;;;;;;7.53;4.30;;;;;;;;;;5049240;28;32129;-73
2021/04/09 14:22:03;;;;;;;5.10;1.85;;;;;;;;;;5043301;28;32377;-73
2021/04/09 14:24:29;;;;;;;3.72;2.47;;;;;;;;;;5051862;28;32538;-74
2021/04/09 14:26:55;;;;;;;11.00;6.22;;;;;;;;;;5052858;28;32657;-73
2021/04/09 14:29:20;;;;;;;7.05;3.85;;;;;;;;;;5049712;28;33365;-73
2021/04/09 14:31:46;;;;;;;12.85;4.97;;;;;;;;;;5051477;28;32351;-73